createdAt,value
2019-06-26T00:02:47.253Z,5.72
2019-06-26T00:06:11.828Z,6.20
2019-06-26T00:09:37.287Z,5.92
2019-06-26T00:13:03.233Z,6.55
2019-06-26T00:16:28.083Z,6.00
2019-06-26T00:19:52.383Z,6.45
2019-06-26T00:23:16.667Z,5.20
2019-06-26T00:26:40.998Z,5.58
2019-06-26T00:30:09.782Z,6.10
2019-06-26T00:33:34.150Z,6.05
2019-06-26T00:36:58.449Z,6.53
2019-06-26T00:40:22.777Z,6.10
2019-06-26T00:43:47.049Z,6.17
2019-06-26T00:47:11.345Z,6.37
2019-06-26T00:50:35.806Z,6.22
2019-06-26T00:54:00.103Z,6.05
2019-06-26T00:57:24.573Z,6.08
2019-06-26T01:00:53.225Z,5.87
2019-06-26T01:04:27.877Z,6.28
2019-06-26T01:07:52.179Z,6.12
2019-06-26T01:11:16.466Z,6.30
2019-06-26T01:14:40.819Z,6.03
2019-06-26T01:18:05.421Z,6.92
2019-06-26T01:21:29.711Z,5.87
2019-06-26T01:24:54.005Z,5.92
2019-06-26T01:28:18.340Z,7.12
2019-06-26T01:31:42.673Z,5.70
2019-06-26T01:35:07.966Z,6.47
2019-06-26T01:38:32.287Z,6.55
2019-06-26T01:41:56.577Z,5.92
2019-06-26T01:45:20.866Z,6.30
2019-06-26T01:48:45.153Z,6.22
2019-06-26T01:52:09.848Z,6.17
2019-06-26T01:55:34.133Z,6.40
2019-06-26T01:58:58.430Z,6.28
2019-06-26T02:02:22.717Z,6.58
2019-06-26T02:05:47.033Z,5.95
2019-06-26T02:09:11.819Z,6.55
2019-06-26T02:12:36.117Z,6.28
2019-06-26T02:16:00.413Z,6.10
2019-06-26T02:19:24.703Z,6.65
2019-06-26T02:22:49.701Z,6.25
2019-06-26T02:26:14.133Z,6.78
2019-06-26T02:29:38.635Z,6.50
2019-06-26T02:33:02.969Z,6.37
2019-06-26T02:36:27.386Z,6.12
2019-06-26T02:39:51.861Z,6.78
2019-06-26T02:43:16.208Z,6.00
2019-06-26T02:46:40.774Z,6.90
2019-06-26T02:50:09.254Z,6.95
2019-06-26T02:53:33.546Z,6.75
2019-06-26T02:56:58.875Z,6.37
2019-06-26T03:00:23.158Z,5.97
2019-06-26T03:03:47.472Z,6.20
2019-06-26T03:07:11.760Z,6.83
2019-06-26T03:10:36.058Z,6.50
2019-06-26T03:14:00.416Z,6.15
2019-06-26T03:17:24.706Z,6.05
2019-06-26T03:20:58.107Z,7.10
2019-06-26T03:24:22.394Z,6.25
2019-06-26T03:27:46.819Z,6.35
2019-06-26T03:31:11.669Z,6.80
2019-06-26T03:34:36.454Z,6.80
2019-06-26T03:38:00.770Z,6.80
2019-06-26T03:41:25.315Z,7.03
2019-06-26T03:44:49.610Z,7.30
2019-06-26T03:48:13.970Z,6.92
2019-06-26T03:51:38.281Z,7.33
2019-06-26T03:55:02.692Z,7.35
2019-06-26T03:58:27.054Z,7.95
2019-06-26T04:01:51.385Z,7.25
2019-06-26T04:05:16.177Z,7.47
2019-06-26T04:08:40.531Z,7.17
2019-06-26T04:12:05.921Z,8.68
2019-06-26T04:15:41.579Z,8.68
2019-06-26T04:18:56.199Z,8.25
2019-06-26T04:22:21.588Z,7.20
2019-06-26T04:25:46.052Z,7.17
2019-06-26T04:29:10.338Z,7.08
2019-06-26T04:32:34.649Z,7.25
2019-06-26T04:35:59.182Z,7.40
2019-06-26T04:39:23.562Z,7.47
2019-06-26T04:42:47.880Z,7.58
2019-06-26T04:46:12.194Z,8.15
2019-06-26T04:49:36.490Z,7.20
2019-06-26T04:53:01.787Z,8.00
2019-06-26T04:56:26.151Z,7.78
2019-06-26T04:59:50.519Z,8.30
2019-06-26T05:03:14.801Z,7.70
2019-06-26T05:06:39.105Z,8.53
2019-06-26T05:10:03.861Z,8.23
2019-06-26T05:13:28.160Z,8.53
2019-06-26T05:16:52.601Z,8.10
2019-06-26T05:20:17.153Z,7.75
2019-06-26T05:23:41.475Z,7.80
2019-06-26T05:27:05.767Z,8.53
2019-06-26T05:30:30.133Z,7.80
2019-06-26T05:33:55.597Z,8.55
2019-06-26T05:37:19.902Z,8.18
2019-06-26T05:40:44.182Z,7.90
2019-06-26T05:44:08.828Z,7.65
2019-06-26T05:47:33.116Z,8.68
2019-06-26T05:50:57.421Z,7.78
2019-06-26T05:54:21.704Z,7.95
2019-06-26T05:57:48.397Z,8.20
2019-06-26T06:01:12.013Z,8.05
2019-06-26T06:04:36.327Z,7.95
2019-06-26T06:08:00.664Z,8.38
2019-06-26T06:11:24.974Z,7.72
2019-06-26T06:14:49.301Z,7.78
2019-06-26T06:18:13.614Z,7.60
2019-06-26T06:21:37.930Z,7.62
2019-06-26T06:25:02.933Z,8.90
2019-06-26T06:28:27.467Z,8.35
2019-06-26T06:31:51.775Z,8.30
2019-06-26T06:35:16.194Z,8.43
2019-06-26T06:38:40.951Z,8.13
2019-06-26T06:42:06.244Z,8.88
2019-06-26T06:45:31.841Z,8.00
2019-06-26T06:48:56.130Z,8.80
2019-06-26T06:52:20.456Z,8.23
2019-06-26T06:55:44.797Z,7.45
2019-06-26T06:59:09.121Z,7.58
2019-06-26T07:02:33.408Z,9.08
2019-06-26T07:05:57.710Z,7.62
2019-06-26T07:09:22.694Z,8.83
2019-06-26T07:12:47.150Z,7.90
2019-06-26T07:16:11.593Z,8.90
2019-06-26T07:19:35.881Z,7.55
2019-06-26T07:23:00.196Z,7.78
2019-06-26T07:26:24.977Z,8.25
2019-06-26T07:29:49.288Z,8.05
2019-06-26T07:33:13.577Z,7.30
2019-06-26T07:36:37.888Z,7.28
2019-06-26T07:40:02.558Z,7.70
2019-06-26T07:43:26.964Z,7.95
2019-06-26T07:46:51.253Z,7.25
2019-06-26T07:50:15.808Z,7.40
2019-06-26T07:53:40.361Z,7.65
2019-06-26T07:57:04.696Z,7.50
2019-06-26T08:00:31.530Z,7.47
2019-06-26T08:03:55.012Z,7.80
2019-06-26T08:07:19.341Z,7.30
2019-06-26T08:10:43.820Z,7.85
2019-06-26T08:14:08.452Z,8.10
2019-06-26T08:17:32.881Z,7.67
2019-06-26T08:21:11.461Z,7.47
2019-06-26T08:24:23.180Z,7.22
2019-06-26T08:27:47.454Z,6.92
2019-06-26T08:31:11.818Z,7.08
2019-06-26T08:34:36.094Z,6.60
2019-06-26T08:38:10.183Z,6.45
2019-06-26T08:41:26.417Z,6.75
2019-06-26T08:44:50.864Z,6.83
2019-06-26T08:48:28.213Z,7.10
2019-06-26T08:51:42.180Z,6.40
2019-06-26T08:55:08.696Z,6.33
2019-06-26T08:58:33.007Z,6.90
2019-06-26T09:01:58.365Z,6.30
2019-06-26T09:05:23.766Z,6.80
2019-06-26T09:08:48.056Z,6.05
2019-06-26T09:12:13.304Z,6.67
2019-06-26T09:15:37.596Z,6.50
2019-06-26T09:19:01.975Z,6.80
2019-06-26T09:22:26.305Z,6.70
2019-06-26T09:25:50.623Z,6.47
2019-06-26T09:29:14.914Z,5.47
2019-06-26T09:32:39.226Z,6.55
2019-06-26T09:36:06.742Z,6.05
2019-06-26T09:39:29.543Z,5.72
2019-06-26T09:42:54.312Z,6.45
2019-06-26T09:46:18.631Z,5.33
2019-06-26T09:49:42.909Z,5.92
2019-06-26T09:53:07.226Z,6.00
2019-06-26T09:56:31.583Z,6.28
2019-06-26T09:59:55.906Z,6.03
2019-06-26T10:03:20.188Z,6.20
2019-06-26T10:06:45.009Z,5.83
2019-06-26T10:10:09.828Z,5.90
2019-06-26T10:13:34.713Z,4.83
2019-06-26T10:16:58.998Z,5.20
2019-06-26T10:20:23.297Z,5.00
2019-06-26T10:23:47.596Z,5.65
2019-06-26T10:27:11.876Z,5.10
2019-06-26T10:30:36.184Z,5.33
2019-06-26T10:34:00.471Z,5.20
2019-06-26T10:37:24.790Z,5.05
2019-06-26T10:40:49.103Z,5.10
2019-06-26T10:44:13.748Z,5.42
2019-06-26T10:47:39.899Z,5.70
2019-06-26T10:51:05.536Z,5.20
2019-06-26T10:54:29.804Z,4.58
2019-06-26T10:57:55.277Z,5.60
2019-06-26T11:01:19.664Z,5.62
2019-06-26T11:04:44.385Z,4.60
2019-06-26T11:08:08.684Z,4.83
2019-06-26T11:11:33.378Z,4.90
2019-06-26T11:14:58.629Z,5.17
2019-06-26T11:18:22.961Z,4.92
2019-06-26T11:21:47.307Z,5.62
2019-06-26T11:25:11.962Z,5.30
2019-06-26T11:28:37.050Z,4.85
2019-06-26T11:32:01.468Z,4.80
2019-06-26T11:35:25.755Z,5.08
2019-06-26T11:38:50.069Z,4.60
2019-06-26T11:42:14.371Z,4.42
2019-06-26T11:45:39.112Z,4.80
2019-06-26T11:49:03.456Z,4.83
2019-06-26T11:52:28.239Z,5.35
2019-06-26T11:55:52.550Z,4.78
2019-06-26T11:59:17.532Z,4.70
2019-06-26T12:02:41.810Z,4.72
2019-06-26T12:06:17.815Z,5.10
2019-06-26T12:09:32.118Z,5.37
2019-06-26T12:12:56.451Z,4.80
2019-06-26T12:16:20.731Z,4.95
2019-06-26T12:19:45.047Z,5.15
2019-06-26T12:23:09.326Z,5.00
2019-06-26T12:26:33.642Z,4.80
2019-06-26T12:29:57.928Z,4.70
2019-06-26T12:33:22.327Z,4.55
2019-06-26T12:36:46.761Z,4.72
2019-06-26T12:40:11.393Z,5.08
2019-06-26T12:43:35.710Z,4.58
2019-06-26T12:47:01.326Z,4.45
2019-06-26T12:50:35.506Z,4.90
2019-06-26T12:53:51.850Z,4.97
2019-06-26T12:57:16.132Z,4.35
2019-06-26T13:00:40.521Z,5.10
2019-06-26T13:04:04.893Z,4.70
2019-06-26T13:07:29.221Z,5.30
2019-06-26T13:10:53.508Z,4.92
2019-06-26T13:14:17.861Z,4.70
2019-06-26T13:17:42.639Z,4.40
2019-06-26T13:21:07.121Z,4.12
2019-06-26T13:24:31.417Z,4.22
2019-06-26T13:27:55.823Z,4.60
2019-06-26T13:31:20.133Z,4.75
2019-06-26T13:34:44.432Z,4.60
2019-06-26T13:38:09.196Z,3.70
2019-06-26T13:41:33.484Z,4.50
2019-06-26T13:44:57.765Z,3.85
2019-06-26T13:48:23.223Z,4.60
2019-06-26T13:51:47.507Z,4.53
2019-06-26T13:55:12.056Z,4.08
2019-06-26T13:58:36.341Z,4.22
2019-06-26T14:02:00.648Z,4.15
2019-06-26T14:05:24.937Z,3.80
2019-06-26T14:08:49.258Z,4.50
2019-06-26T14:12:13.536Z,3.87
2019-06-26T14:15:37.845Z,4.37
2019-06-26T14:19:02.123Z,3.80
2019-06-26T14:22:26.434Z,4.30
2019-06-26T14:25:50.827Z,3.80
2019-06-26T14:29:20.914Z,4.00
2019-06-26T14:32:41.159Z,4.40
2019-06-26T14:36:05.434Z,4.20
2019-06-26T14:39:29.746Z,4.08
2019-06-26T14:42:54.024Z,3.80
2019-06-26T14:46:18.340Z,4.08
2019-06-26T14:49:43.422Z,4.40
2019-06-26T14:53:07.803Z,4.58
2019-06-26T14:56:32.139Z,4.17
2019-06-26T14:59:56.425Z,3.92
2019-06-26T15:03:20.771Z,4.12
2019-06-26T15:06:45.085Z,3.75
2019-06-26T15:10:10.346Z,4.15
2019-06-26T15:13:34.633Z,3.70
2019-06-26T15:16:58.961Z,3.77
2019-06-26T15:20:23.229Z,3.67
2019-06-26T15:23:47.534Z,3.87
2019-06-26T15:27:11.835Z,4.35
2019-06-26T15:30:36.183Z,3.90
2019-06-26T15:34:01.586Z,4.50
2019-06-26T15:37:26.301Z,3.92
2019-06-26T15:40:50.615Z,3.98
2019-06-26T15:44:15.404Z,4.08
2019-06-26T15:47:39.706Z,4.80
2019-06-26T15:51:03.995Z,4.35
2019-06-26T15:54:28.301Z,4.22
2019-06-26T15:57:52.602Z,3.90
2019-06-26T16:01:17.063Z,4.40
2019-06-26T16:04:41.352Z,4.17
2019-06-26T16:08:06.042Z,4.25
2019-06-26T16:11:30.338Z,3.65
2019-06-26T16:14:54.695Z,4.17
2019-06-26T16:18:23.330Z,4.00
2019-06-26T16:21:47.712Z,4.08
2019-06-26T16:25:12.439Z,4.00
2019-06-26T16:28:36.757Z,3.65
2019-06-26T16:32:01.045Z,4.33
2019-06-26T16:35:25.343Z,4.25
2019-06-26T16:38:49.651Z,4.20
2019-06-26T16:42:13.944Z,4.53
2019-06-26T16:45:38.870Z,4.00
2019-06-26T16:49:03.260Z,4.25
2019-06-26T16:52:27.750Z,4.58
2019-06-26T16:55:52.138Z,4.33
2019-06-26T16:59:16.435Z,3.95
2019-06-26T17:02:40.750Z,4.20
2019-06-26T17:06:05.110Z,4.30
2019-06-26T17:09:30.456Z,4.10
2019-06-26T17:12:54.744Z,4.37
2019-06-26T17:16:19.053Z,4.58
2019-06-26T17:19:43.900Z,4.55
2019-06-26T17:23:08.191Z,4.37
2019-06-26T17:26:32.894Z,4.30
2019-06-26T17:29:57.190Z,4.55
2019-06-26T17:33:21.522Z,4.92
2019-06-26T17:36:45.804Z,4.62
2019-06-26T17:40:10.756Z,4.10
2019-06-26T17:43:35.045Z,4.67
2019-06-26T17:46:59.395Z,4.40
2019-06-26T17:50:23.763Z,4.20
2019-06-26T17:53:48.060Z,4.28
2019-06-26T17:57:12.345Z,4.33
2019-06-26T18:00:37.335Z,4.35
2019-06-26T18:04:01.651Z,4.85
2019-06-26T18:07:25.957Z,4.90
2019-06-26T18:10:50.675Z,5.05
2019-06-26T18:14:15.004Z,4.78
2019-06-26T18:17:39.373Z,5.15
2019-06-26T18:21:03.732Z,5.60
2019-06-26T18:24:28.398Z,5.70
2019-06-26T18:27:52.690Z,5.20
2019-06-26T18:31:17.034Z,5.40
2019-06-26T18:34:41.357Z,5.75
2019-06-26T18:38:06.077Z,5.67
2019-06-26T18:41:30.367Z,5.60
2019-06-26T18:44:55.137Z,8.48
2019-06-26T18:48:19.484Z,9.80
2019-06-26T18:51:44.605Z,10.80
2019-06-26T18:55:09.438Z,10.70
2019-06-26T18:58:33.830Z,11.83
2019-06-26T19:01:58.132Z,12.33
2019-06-26T19:05:22.477Z,12.37
2019-06-26T19:08:46.782Z,12.45
2019-06-26T19:12:11.102Z,10.95
2019-06-26T19:15:35.469Z,10.95
2019-06-26T19:18:59.779Z,9.95
2019-06-26T19:22:24.098Z,10.08
2019-06-26T19:25:48.877Z,11.80
2019-06-26T19:29:13.169Z,11.93
2019-06-26T19:32:37.740Z,10.32
2019-06-26T19:36:03.101Z,11.03
2019-06-26T19:39:27.527Z,9.48
2019-06-26T19:42:51.832Z,12.60
2019-06-26T19:46:16.117Z,11.80
2019-06-26T19:49:40.443Z,12.43
2019-06-26T19:53:05.104Z,12.13
2019-06-26T19:56:29.418Z,11.78
2019-06-26T19:59:53.773Z,12.45
2019-06-26T20:03:18.106Z,12.70
2019-06-26T20:06:42.525Z,12.13
2019-06-26T20:10:07.635Z,12.35
2019-06-26T20:13:31.934Z,11.78
2019-06-26T20:16:56.232Z,12.80
2019-06-26T20:20:20.521Z,12.80
2019-06-26T20:23:44.848Z,12.73
2019-06-26T20:27:09.224Z,12.30
2019-06-26T20:30:33.849Z,13.28
2019-06-26T20:33:58.151Z,12.65
2019-06-26T20:37:22.658Z,12.43
2019-06-26T20:40:46.951Z,12.37
2019-06-26T20:44:11.261Z,12.50
2019-06-26T20:47:35.566Z,12.68
2019-06-26T20:50:59.913Z,12.90
2019-06-26T20:54:24.210Z,12.20
2019-06-26T20:57:48.544Z,12.68
2019-06-26T21:01:12.839Z,11.90
2019-06-26T21:04:37.637Z,11.85
2019-06-26T21:08:01.969Z,13.22
2019-06-26T21:11:26.314Z,12.68
2019-06-26T21:14:50.925Z,11.33
2019-06-26T21:18:15.253Z,11.70
2019-06-26T21:21:39.554Z,11.93
2019-06-26T21:25:18.334Z,11.70
2019-06-26T21:28:34.158Z,11.78
2019-06-26T21:31:58.463Z,12.05
2019-06-26T21:35:22.782Z,11.53
2019-06-26T21:38:47.082Z,11.20
2019-06-26T21:42:11.389Z,11.48
2019-06-26T21:45:35.679Z,11.35
2019-06-26T21:49:00.029Z,11.28
2019-06-26T21:52:24.325Z,11.65
2019-06-26T21:55:49.200Z,11.38
2019-06-26T21:59:31.378Z,11.93
2019-06-26T22:03:14.188Z,11.65
2019-06-26T22:06:40.353Z,11.78
2019-06-26T22:10:09.712Z,11.30
2019-06-26T22:13:35.793Z,11.68
2019-06-26T22:17:00.165Z,11.68
2019-06-26T22:20:24.690Z,11.35
2019-06-26T22:23:48.982Z,11.30
2019-06-26T22:27:13.360Z,11.63
2019-06-26T22:30:37.708Z,11.73
2019-06-26T22:34:02.006Z,12.18
2019-06-26T22:37:26.337Z,11.12
2019-06-26T22:40:50.673Z,11.18
2019-06-26T22:44:14.995Z,11.70
2019-06-26T22:47:39.288Z,11.97
2019-06-26T22:51:04.665Z,10.82
2019-06-26T22:54:29.433Z,11.90
2019-06-26T22:57:53.821Z,11.73
2019-06-26T23:01:18.421Z,11.57
2019-06-26T23:04:42.731Z,12.33
2019-06-26T23:08:07.042Z,11.70
2019-06-26T23:11:31.398Z,10.93
2019-06-26T23:14:55.767Z,11.45
2019-06-26T23:18:20.149Z,11.33
2019-06-26T23:21:44.449Z,12.10
2019-06-26T23:25:09.091Z,11.80
2019-06-26T23:28:34.350Z,11.45
2019-06-26T23:31:58.771Z,11.40
2019-06-26T23:35:23.073Z,12.90
2019-06-26T23:38:47.368Z,11.95
2019-06-26T23:42:12.252Z,12.28
2019-06-26T23:45:36.815Z,12.03
2019-06-26T23:49:01.113Z,11.70
2019-06-26T23:52:25.417Z,12.13
2019-06-26T23:55:50.661Z,11.78
2019-06-26T23:59:16.782Z,11.45
